createdAt,value
2022-07-29T00:01:20.520Z,23.19
2022-07-29T00:06:49.609Z,23.11
2022-07-29T00:12:21.433Z,23.01
2022-07-29T00:17:54.752Z,23.00
2022-07-29T00:23:23.643Z,22.97
2022-07-29T00:29:06.345Z,22.93
2022-07-29T00:35:00.975Z,22.88
2022-07-29T00:40:30.070Z,22.76
2022-07-29T00:46:00.128Z,22.67
2022-07-29T00:51:29.726Z,22.63
2022-07-29T00:57:00.424Z,22.53
2022-07-29T01:02:31.121Z,22.48
2022-07-29T01:08:01.923Z,22.43
2022-07-29T01:13:34.308Z,22.41
2022-07-29T01:19:14.269Z,22.42
2022-07-29T01:25:04.446Z,22.37
2022-07-29T01:30:37.221Z,22.28
2022-07-29T01:36:12.991Z,22.23
2022-07-29T01:41:51.619Z,22.08
2022-07-29T01:47:25.406Z,22.00
2022-07-29T01:52:58.874Z,21.93
2022-07-29T01:58:30.698Z,21.81
2022-07-29T02:04:04.558Z,21.75
2022-07-29T02:09:36.832Z,21.71
2022-07-29T02:15:08.660Z,21.65
2022-07-29T02:20:44.989Z,21.61
2022-07-29T02:26:13.986Z,21.58
2022-07-29T02:31:45.374Z,21.55
2022-07-29T02:37:18.698Z,21.52
2022-07-29T02:42:49.420Z,21.50
2022-07-29T02:48:20.385Z,21.54
2022-07-29T02:53:55.329Z,21.61
2022-07-29T02:59:29.226Z,21.64
2022-07-29T03:05:00.318Z,21.72
2022-07-29T03:10:32.338Z,21.75
2022-07-29T03:16:02.581Z,21.79
2022-07-29T03:21:32.374Z,21.84
2022-07-29T03:27:03.197Z,21.87
2022-07-29T03:32:32.492Z,21.95
2022-07-29T03:38:01.472Z,22.04
2022-07-29T03:43:34.535Z,22.09
2022-07-29T03:49:05.975Z,22.19
2022-07-29T03:54:35.694Z,22.24
2022-07-29T04:00:07.469Z,22.30
2022-07-29T04:05:36.726Z,22.42
2022-07-29T04:11:06.961Z,22.49
2022-07-29T04:16:38.919Z,22.62
2022-07-29T04:22:07.950Z,22.70
2022-07-29T04:27:57.702Z,22.81
2022-07-29T04:33:28.357Z,22.93
2022-07-29T04:38:57.663Z,23.07
2022-07-29T04:44:29.788Z,23.09
2022-07-29T04:50:01.135Z,23.32
2022-07-29T04:55:30.745Z,23.44
2022-07-29T05:00:59.403Z,23.58
2022-07-29T05:06:29.847Z,23.67
2022-07-29T05:11:58.335Z,23.72
2022-07-29T05:17:27.655Z,23.90
2022-07-29T05:22:58.905Z,24.03
2022-07-29T05:28:28.885Z,24.27
2022-07-29T05:33:57.436Z,24.37
2022-07-29T05:39:48.841Z,24.45
2022-07-29T05:45:17.349Z,24.63
2022-07-29T05:50:46.284Z,24.72
2022-07-29T05:56:17.992Z,24.88
2022-07-29T06:01:47.521Z,25.08
2022-07-29T06:07:17.242Z,25.14
2022-07-29T06:12:47.769Z,25.31
2022-07-29T06:18:16.330Z,25.51
2022-07-29T06:23:46.673Z,25.62
2022-07-29T06:29:16.862Z,25.80
2022-07-29T06:34:48.963Z,26.00
2022-07-29T06:40:36.396Z,26.02
2022-07-29T06:46:08.877Z,26.38
2022-07-29T06:51:37.780Z,26.91
2022-07-29T06:57:06.831Z,27.70
2022-07-29T07:02:36.889Z,29.75
2022-07-29T07:08:06.039Z,32.36
2022-07-29T07:13:36.686Z,34.04
2022-07-29T07:19:08.059Z,35.36
2022-07-29T07:24:37.285Z,35.89
2022-07-29T07:30:08.230Z,36.16
2022-07-29T07:35:38.719Z,36.22
2022-07-29T07:41:07.855Z,36.56
2022-07-29T07:46:36.398Z,36.92
2022-07-29T07:52:08.972Z,37.33
2022-07-29T07:57:38.872Z,37.53
2022-07-29T08:03:16.773Z,38.00
2022-07-29T08:08:47.600Z,38.21
2022-07-29T08:14:16.512Z,37.76
2022-07-29T08:19:45.656Z,37.95
2022-07-29T08:25:16.943Z,36.80
2022-07-29T08:30:46.541Z,37.02
2022-07-29T08:36:15.486Z,36.75
2022-07-29T08:41:57.021Z,37.46
2022-07-29T08:47:28.432Z,37.90
2022-07-29T08:52:59.901Z,38.09
2022-07-29T08:58:36.775Z,37.52
2022-07-29T09:04:12.990Z,37.79
2022-07-29T09:09:43.690Z,37.68
2022-07-29T09:15:13.710Z,37.58
2022-07-29T09:21:11.080Z,37.43
2022-07-29T09:26:43.132Z,36.43
2022-07-29T09:32:14.550Z,35.25
2022-07-29T09:37:43.981Z,34.98
2022-07-29T09:43:14.802Z,34.66
2022-07-29T09:48:44.745Z,34.59
2022-07-29T09:54:26.778Z,34.46
2022-07-29T10:00:00.671Z,34.71
2022-07-29T10:05:36.140Z,34.94
2022-07-29T10:11:14.093Z,34.94
2022-07-29T10:16:43.903Z,34.77
2022-07-29T10:22:15.123Z,35.12
2022-07-29T10:27:44.873Z,34.99
2022-07-29T10:33:29.909Z,34.94
2022-07-29T10:44:56.243Z,34.58
2022-07-29T10:50:26.037Z,34.29
2022-07-29T10:55:57.436Z,34.34
2022-07-29T11:01:37.247Z,34.23
2022-07-29T11:07:10.988Z,34.16
2022-07-29T11:12:52.141Z,34.00
2022-07-29T11:18:21.228Z,33.78
2022-07-29T11:24:14.683Z,33.90
2022-07-29T11:29:54.442Z,33.68
2022-07-29T11:35:37.099Z,33.68
2022-07-29T11:41:27.364Z,33.97
2022-07-29T11:46:58.207Z,33.87
2022-07-29T11:52:34.918Z,33.33
2022-07-29T11:58:25.241Z,33.36
2022-07-29T12:04:06.816Z,33.45
2022-07-29T12:09:40.310Z,33.38
2022-07-29T12:15:15.333Z,33.45
2022-07-29T12:20:46.401Z,33.39
2022-07-29T12:26:21.807Z,33.45
2022-07-29T12:31:58.062Z,33.43
2022-07-29T12:37:30.987Z,33.46
2022-07-29T12:43:11.382Z,33.74
2022-07-29T12:48:42.316Z,33.87
2022-07-29T12:54:14.492Z,33.70
2022-07-29T12:59:43.918Z,33.49
2022-07-29T13:05:13.882Z,33.21
2022-07-29T13:10:44.942Z,33.41
2022-07-29T13:16:14.554Z,33.43
2022-07-29T13:21:43.604Z,32.91
2022-07-29T13:27:13.916Z,33.12
2022-07-29T13:32:43.246Z,33.21
2022-07-29T13:38:12.602Z,33.15
2022-07-29T13:43:42.922Z,33.14
2022-07-29T13:49:12.764Z,33.04
2022-07-29T13:54:42.617Z,32.86
2022-07-29T14:00:16.092Z,32.99
2022-07-29T14:05:45.508Z,32.71
2022-07-29T14:11:14.559Z,32.55
2022-07-29T14:16:49.200Z,32.57
2022-07-29T14:22:22.327Z,32.48
2022-07-29T14:27:55.196Z,32.53
2022-07-29T14:33:28.855Z,32.46
2022-07-29T14:38:57.165Z,32.48
2022-07-29T14:44:32.113Z,32.04
2022-07-29T14:50:02.932Z,31.74
2022-07-29T14:55:32.886Z,31.26
2022-07-29T15:01:01.970Z,31.15
2022-07-29T15:06:32.975Z,31.10
2022-07-29T15:12:03.945Z,31.36
2022-07-29T15:17:33.933Z,31.37
2022-07-29T15:23:05.040Z,31.15
2022-07-29T15:28:34.360Z,30.85
2022-07-29T15:34:05.885Z,30.81
2022-07-29T15:39:38.307Z,30.86
2022-07-29T15:45:08.618Z,30.59
2022-07-29T15:50:37.335Z,30.47
2022-07-29T15:56:07.789Z,30.17
2022-07-29T16:01:36.481Z,29.70
2022-07-29T16:07:12.012Z,29.38
2022-07-29T16:12:42.824Z,29.17
2022-07-29T16:18:11.540Z,28.96
2022-07-29T16:23:42.153Z,28.85
2022-07-29T16:29:12.955Z,28.56
2022-07-29T16:34:42.288Z,28.43
2022-07-29T16:40:11.978Z,28.15
2022-07-29T16:45:46.017Z,28.06
2022-07-29T16:51:15.589Z,27.98
2022-07-29T16:56:44.274Z,27.83
2022-07-29T17:02:14.752Z,27.74
2022-07-29T17:07:43.596Z,27.60
2022-07-29T17:13:12.308Z,27.43
2022-07-29T17:18:42.743Z,27.34
2022-07-29T17:24:11.255Z,27.23
2022-07-29T17:29:40.693Z,27.06
2022-07-29T17:35:25.260Z,26.76
2022-07-29T17:40:54.829Z,26.67
2022-07-29T17:46:27.152Z,26.64
2022-07-29T17:52:00.885Z,26.62
2022-07-29T17:57:30.419Z,26.52
2022-07-29T18:02:59.419Z,26.38
2022-07-29T18:08:29.624Z,26.25
2022-07-29T18:13:58.266Z,26.13
2022-07-29T18:19:31.937Z,26.00
2022-07-29T18:25:03.051Z,25.99
2022-07-29T18:30:33.990Z,25.94
2022-07-29T18:36:10.885Z,25.81
2022-07-29T18:41:49.923Z,25.71
2022-07-29T18:47:20.485Z,25.59
2022-07-29T18:52:49.567Z,25.50
2022-07-29T18:58:19.827Z,25.41
2022-07-29T19:03:49.868Z,25.33
2022-07-29T19:09:19.114Z,25.23
2022-07-29T19:14:49.760Z,25.18
2022-07-29T19:20:18.285Z,25.08
2022-07-29T19:25:54.017Z,24.94
2022-07-29T19:31:24.830Z,24.84
2022-07-29T19:36:54.809Z,24.79
2022-07-29T19:42:24.151Z,24.70
2022-07-29T19:48:00.655Z,24.64
2022-07-29T19:53:30.306Z,24.57
2022-07-29T19:59:00.713Z,24.49
2022-07-29T20:04:33.160Z,24.42
2022-07-29T20:10:03.868Z,24.34
2022-07-29T20:15:33.396Z,24.30
2022-07-29T20:21:04.738Z,24.23
2022-07-29T20:26:34.516Z,24.20
2022-07-29T20:32:03.762Z,24.16
2022-07-29T20:37:33.812Z,24.07
2022-07-29T20:43:21.422Z,23.97
2022-07-29T20:48:50.400Z,23.88
2022-07-29T20:54:20.481Z,23.71
2022-07-29T20:59:49.045Z,23.69
2022-07-29T21:05:18.486Z,23.66
2022-07-29T21:10:48.610Z,23.58
2022-07-29T21:16:19.115Z,23.50
2022-07-29T21:21:50.366Z,23.32
2022-07-29T21:27:38.598Z,23.26
2022-07-29T21:33:07.483Z,23.15
2022-07-29T21:38:36.698Z,23.09
2022-07-29T21:44:07.886Z,22.99
2022-07-29T21:49:37.437Z,22.90
2022-07-29T21:55:07.051Z,22.88
2022-07-29T22:00:38.225Z,22.82
2022-07-29T22:06:07.556Z,22.78
2022-07-29T22:11:36.974Z,22.69
2022-07-29T22:17:07.515Z,22.62
2022-07-29T22:22:36.075Z,22.60
2022-07-29T22:28:06.136Z,22.51
2022-07-29T22:33:36.437Z,22.41
2022-07-29T22:39:05.678Z,22.32
2022-07-29T22:44:34.522Z,22.23
2022-07-29T22:50:05.874Z,22.13
2022-07-29T22:55:35.396Z,22.08
2022-07-29T23:01:04.465Z,21.98
2022-07-29T23:06:35.146Z,21.92
2022-07-29T23:12:04.962Z,21.84
2022-07-29T23:17:36.656Z,21.80
2022-07-29T23:23:07.584Z,21.73
2022-07-29T23:28:36.408Z,21.71
2022-07-29T23:34:05.478Z,21.65
2022-07-29T23:39:35.583Z,21.50
2022-07-29T23:45:04.400Z,21.45
2022-07-29T23:50:33.293Z,21.41
2022-07-29T23:56:03.654Z,21.19
